Erie, North Dakota
Current Conditions -  °F | °C
As of 12:53 PM on Wednesday 26 Nov 2014 (Local Time) from KFAR Reporting Station
Overcast Overcast  
Wind Chill: -11°   Ceiling: 11000
Heat Index:   Visibility: 10mi
Dew Point: -4°   Wind: 14mph
Humidity: 63%   Direction: 360°N
Pressure: 30.4"   Gusts: NA
Location:  47.12°N, 97.39°W
Report Text: KFAR 261853Z 36012KT 10SM OVC110 M14/M20 A3040 RMK AO2 SLP318 T11441200
Loading
Personal Weather Stations






























Interactive Weather Map New forecast layout! Learn more

10-Day Weather Forecast

Advertisements
Track Severe Weather on mobile